sensor_id;sensor_type;location;lat;lon;timestamp;P1;durP1;ratioP1;P2;durP2;ratioP2
68608;SDS011;55581;46.718;7.690;2023-07-31T00:01:02;8.67;;;1.00;;
68608;SDS011;55581;46.718;7.690;2023-07-31T00:03:27;5.60;;;1.70;;
68608;SDS011;55581;46.718;7.690;2023-07-31T00:05:52;3.60;;;0.97;;
68608;SDS011;55581;46.718;7.690;2023-07-31T00:08:18;3.67;;;0.90;;
68608;SDS011;55581;46.718;7.690;2023-07-31T00:10:43;3.90;;;1.00;;
68608;SDS011;55581;46.718;7.690;2023-07-31T00:13:09;2.83;;;0.93;;
68608;SDS011;55581;46.718;7.690;2023-07-31T00:15:34;5.27;;;0.93;;
68608;SDS011;55581;46.718;7.690;2023-07-31T00:17:59;8.37;;;1.70;;
68608;SDS011;55581;46.718;7.690;2023-07-31T00:20:26;4.38;;;1.15;;
68608;SDS011;55581;46.718;7.690;2023-07-31T00:22:53;4.53;;;1.27;;
68608;SDS011;55581;46.718;7.690;2023-07-31T00:25:21;4.18;;;1.20;;
68608;SDS011;55581;46.718;7.690;2023-07-31T00:27:46;4.60;;;1.23;;
68608;SDS011;55581;46.718;7.690;2023-07-31T00:30:15;3.13;;;0.90;;
68608;SDS011;55581;46.718;7.690;2023-07-31T00:32:41;2.97;;;0.90;;
68608;SDS011;55581;46.718;7.690;2023-07-31T00:35:06;4.10;;;1.00;;
68608;SDS011;55581;46.718;7.690;2023-07-31T00:37:32;5.67;;;1.00;;
68608;SDS011;55581;46.718;7.690;2023-07-31T00:39:57;4.43;;;0.90;;
68608;SDS011;55581;46.718;7.690;2023-07-31T00:42:22;3.93;;;0.90;;
68608;SDS011;55581;46.718;7.690;2023-07-31T00:44:49;5.65;;;1.27;;
68608;SDS011;55581;46.718;7.690;2023-07-31T00:47:15;4.83;;;0.87;;
68608;SDS011;55581;46.718;7.690;2023-07-31T00:49:40;6.65;;;1.13;;
68608;SDS011;55581;46.718;7.690;2023-07-31T00:52:06;4.43;;;1.10;;
68608;SDS011;55581;46.718;7.690;2023-07-31T00:54:32;3.08;;;0.95;;
68608;SDS011;55581;46.718;7.690;2023-07-31T00:56:58;5.78;;;1.23;;
68608;SDS011;55581;46.718;7.690;2023-07-31T00:59:27;3.38;;;0.82;;
68608;SDS011;55581;46.718;7.690;2023-07-31T01:01:54;6.30;;;1.20;;
68608;SDS011;55581;46.718;7.690;2023-07-31T01:04:20;4.05;;;0.93;;
68608;SDS011;55581;46.718;7.690;2023-07-31T01:06:49;6.93;;;1.20;;
68608;SDS011;55581;46.718;7.690;2023-07-31T01:09:36;4.63;;;1.23;;
68608;SDS011;55581;46.718;7.690;2023-07-31T01:12:29;6.95;;;1.20;;
68608;SDS011;55581;46.718;7.690;2023-07-31T01:15:06;4.85;;;0.77;;
68608;SDS011;55581;46.718;7.690;2023-07-31T01:17:36;3.17;;;0.90;;
68608;SDS011;55581;46.718;7.690;2023-07-31T01:20:05;7.13;;;1.75;;
68608;SDS011;55581;46.718;7.690;2023-07-31T01:25:29;4.00;;;0.90;;
68608;SDS011;55581;46.718;7.690;2023-07-31T01:28:06;4.00;;;0.90;;
68608;SDS011;55581;46.718;7.690;2023-07-31T01:30:39;3.90;;;1.10;;
68608;SDS011;55581;46.718;7.690;2023-07-31T01:33:11;5.75;;;1.13;;
68608;SDS011;55581;46.718;7.690;2023-07-31T01:35:37;4.10;;;0.90;;
68608;SDS011;55581;46.718;7.690;2023-07-31T01:38:05;3.40;;;0.90;;
68608;SDS011;55581;46.718;7.690;2023-07-31T01:40:31;4.70;;;0.95;;
68608;SDS011;55581;46.718;7.690;2023-07-31T01:42:58;3.40;;;0.90;;
68608;SDS011;55581;46.718;7.690;2023-07-31T01:45:23;3.47;;;1.00;;
68608;SDS011;55581;46.718;7.690;2023-07-31T01:47:49;4.60;;;0.87;;
68608;SDS011;55581;46.718;7.690;2023-07-31T01:50:15;3.78;;;0.88;;
68608;SDS011;55581;46.718;7.690;2023-07-31T01:52:40;5.40;;;1.20;;
68608;SDS011;55581;46.718;7.690;2023-07-31T01:55:05;4.57;;;1.07;;
68608;SDS011;55581;46.718;7.690;2023-07-31T01:57:31;4.97;;;1.10;;
68608;SDS011;55581;46.718;7.690;2023-07-31T01:59:56;6.00;;;0.70;;
68608;SDS011;55581;46.718;7.690;2023-07-31T02:02:22;3.37;;;0.90;;
68608;SDS011;55581;46.718;7.690;2023-07-31T02:04:50;3.72;;;1.20;;
68608;SDS011;55581;46.718;7.690;2023-07-31T02:07:15;4.70;;;0.70;;
68608;SDS011;55581;46.718;7.690;2023-07-31T02:09:41;5.03;;;1.10;;
68608;SDS011;55581;46.718;7.690;2023-07-31T02:12:06;5.53;;;1.03;;
68608;SDS011;55581;46.718;7.690;2023-07-31T02:14:33;4.20;;;1.40;;
68608;SDS011;55581;46.718;7.690;2023-07-31T02:16:59;5.80;;;1.35;;
68608;SDS011;55581;46.718;7.690;2023-07-31T02:19:24;4.57;;;1.30;;
68608;SDS011;55581;46.718;7.690;2023-07-31T02:21:50;3.97;;;1.30;;
68608;SDS011;55581;46.718;7.690;2023-07-31T02:24:15;8.30;;;1.90;;
68608;SDS011;55581;46.718;7.690;2023-07-31T02:26:41;4.67;;;1.00;;
68608;SDS011;55581;46.718;7.690;2023-07-31T02:29:07;4.15;;;1.00;;
68608;SDS011;55581;46.718;7.690;2023-07-31T02:31:35;3.30;;;0.90;;
68608;SDS011;55581;46.718;7.690;2023-07-31T02:34:01;3.03;;;1.00;;
68608;SDS011;55581;46.718;7.690;2023-07-31T02:36:26;5.90;;;1.53;;
68608;SDS011;55581;46.718;7.690;2023-07-31T02:38:51;3.47;;;1.13;;
68608;SDS011;55581;46.718;7.690;2023-07-31T02:41:17;4.03;;;1.10;;
68608;SDS011;55581;46.718;7.690;2023-07-31T02:43:42;3.93;;;1.10;;
68608;SDS011;55581;46.718;7.690;2023-07-31T02:46:07;4.20;;;1.17;;
68608;SDS011;55581;46.718;7.690;2023-07-31T02:48:33;4.55;;;1.20;;
68608;SDS011;55581;46.718;7.690;2023-07-31T02:50:58;7.83;;;1.10;;
68608;SDS011;55581;46.718;7.690;2023-07-31T02:53:24;3.47;;;1.07;;
68608;SDS011;55581;46.718;7.690;2023-07-31T02:55:49;3.30;;;0.90;;
68608;SDS011;55581;46.718;7.690;2023-07-31T02:58:17;3.40;;;1.13;;
68608;SDS011;55581;46.718;7.690;2023-07-31T03:00:47;6.57;;;1.42;;
68608;SDS011;55581;46.718;7.690;2023-07-31T03:03:12;4.03;;;1.00;;
68608;SDS011;55581;46.718;7.690;2023-07-31T03:05:38;4.63;;;1.23;;
68608;SDS011;55581;46.718;7.690;2023-07-31T03:08:03;5.43;;;1.23;;
68608;SDS011;55581;46.718;7.690;2023-07-31T03:10:31;3.00;;;0.80;;
68608;SDS011;55581;46.718;7.690;2023-07-31T03:12:59;3.60;;;1.05;;
68608;SDS011;55581;46.718;7.690;2023-07-31T03:15:24;5.00;;;1.38;;
68608;SDS011;55581;46.718;7.690;2023-07-31T03:17:50;3.87;;;1.00;;
68608;SDS011;55581;46.718;7.690;2023-07-31T03:20:15;4.20;;;1.13;;
68608;SDS011;55581;46.718;7.690;2023-07-31T03:22:43;5.97;;;1.13;;
68608;SDS011;55581;46.718;7.690;2023-07-31T03:25:08;3.73;;;1.13;;
68608;SDS011;55581;46.718;7.690;2023-07-31T03:27:36;3.75;;;1.10;;
68608;SDS011;55581;46.718;7.690;2023-07-31T03:30:02;4.47;;;1.00;;
68608;SDS011;55581;46.718;7.690;2023-07-31T03:32:28;5.18;;;0.90;;
68608;SDS011;55581;46.718;7.690;2023-07-31T03:34:53;2.97;;;0.70;;
68608;SDS011;55581;46.718;7.690;2023-07-31T03:37:19;3.97;;;1.10;;
68608;SDS011;55581;46.718;7.690;2023-07-31T03:39:46;5.00;;;0.90;;
68608;SDS011;55581;46.718;7.690;2023-07-31T03:42:12;2.75;;;0.70;;
68608;SDS011;55581;46.718;7.690;2023-07-31T03:44:37;3.83;;;1.00;;
68608;SDS011;55581;46.718;7.690;2023-07-31T03:47:03;4.20;;;1.03;;
68608;SDS011;55581;46.718;7.690;2023-07-31T03:49:31;3.53;;;0.90;;
68608;SDS011;55581;46.718;7.690;2023-07-31T03:51:56;7.33;;;1.23;;
68608;SDS011;55581;46.718;7.690;2023-07-31T03:54:21;3.47;;;0.90;;
68608;SDS011;55581;46.718;7.690;2023-07-31T03:56:47;3.88;;;1.05;;
68608;SDS011;55581;46.718;7.690;2023-07-31T03:59:12;5.53;;;1.23;;
68608;SDS011;55581;46.718;7.690;2023-07-31T04:01:40;3.78;;;1.20;;
68608;SDS011;55581;46.718;7.690;2023-07-31T04:04:08;4.33;;;1.33;;
68608;SDS011;55581;46.718;7.690;2023-07-31T04:06:33;3.77;;;0.93;;
68608;SDS011;55581;46.718;7.690;2023-07-31T04:08:58;3.57;;;1.00;;
68608;SDS011;55581;46.718;7.690;2023-07-31T04:11:26;4.67;;;1.40;;
68608;SDS011;55581;46.718;7.690;2023-07-31T04:13:52;6.10;;;1.60;;
68608;SDS011;55581;46.718;7.690;2023-07-31T04:16:17;3.93;;;1.40;;
68608;SDS011;55581;46.718;7.690;2023-07-31T04:18:42;4.43;;;1.20;;
68608;SDS011;55581;46.718;7.690;2023-07-31T04:21:08;3.30;;;1.10;;
68608;SDS011;55581;46.718;7.690;2023-07-31T04:23:35;3.00;;;0.80;;
68608;SDS011;55581;46.718;7.690;2023-07-31T04:26:02;3.65;;;1.40;;
68608;SDS011;55581;46.718;7.690;2023-07-31T04:28:28;3.80;;;1.20;;
68608;SDS011;55581;46.718;7.690;2023-07-31T04:30:53;4.57;;;1.23;;
68608;SDS011;55581;46.718;7.690;2023-07-31T04:33:18;2.97;;;0.83;;
68608;SDS011;55581;46.718;7.690;2023-07-31T04:35:51;3.25;;;1.00;;
68608;SDS011;55581;46.718;7.690;2023-07-31T04:38:22;5.43;;;1.00;;
68608;SDS011;55581;46.718;7.690;2023-07-31T04:40:48;5.88;;;1.08;;
68608;SDS011;55581;46.718;7.690;2023-07-31T04:43:16;3.92;;;1.20;;
68608;SDS011;55581;46.718;7.690;2023-07-31T04:45:47;5.30;;;0.97;;
68608;SDS011;55581;46.718;7.690;2023-07-31T04:48:15;3.22;;;1.13;;
68608;SDS011;55581;46.718;7.690;2023-07-31T04:50:43;3.20;;;0.75;;
68608;SDS011;55581;46.718;7.690;2023-07-31T04:53:08;3.73;;;1.00;;
68608;SDS011;55581;46.718;7.690;2023-07-31T04:55:33;3.63;;;0.80;;
68608;SDS011;55581;46.718;7.690;2023-07-31T04:57:59;3.72;;;1.02;;
68608;SDS011;55581;46.718;7.690;2023-07-31T05:00:25;4.50;;;1.40;;
68608;SDS011;55581;46.718;7.690;2023-07-31T05:02:50;3.43;;;0.83;;
68608;SDS011;55581;46.718;7.690;2023-07-31T05:05:18;5.13;;;1.02;;
68608;SDS011;55581;46.718;7.690;2023-07-31T05:07:45;3.43;;;1.23;;
68608;SDS011;55581;46.718;7.690;2023-07-31T05:10:11;3.40;;;1.20;;
68608;SDS011;55581;46.718;7.690;2023-07-31T05:12:36;3.63;;;1.20;;
68608;SDS011;55581;46.718;7.690;2023-07-31T05:15:04;4.57;;;1.10;;
68608;SDS011;55581;46.718;7.690;2023-07-31T05:17:30;3.73;;;1.30;;
68608;SDS011;55581;46.718;7.690;2023-07-31T05:19:55;3.95;;;1.17;;
68608;SDS011;55581;46.718;7.690;2023-07-31T05:22:20;5.53;;;1.20;;
68608;SDS011;55581;46.718;7.690;2023-07-31T05:24:46;4.80;;;1.30;;
68608;SDS011;55581;46.718;7.690;2023-07-31T05:27:11;3.83;;;1.00;;
68608;SDS011;55581;46.718;7.690;2023-07-31T05:29:37;3.30;;;1.08;;
68608;SDS011;55581;46.718;7.690;2023-07-31T05:32:03;5.13;;;1.40;;
68608;SDS011;55581;46.718;7.690;2023-07-31T05:34:29;5.43;;;1.48;;
68608;SDS011;55581;46.718;7.690;2023-07-31T05:36:54;3.03;;;1.07;;
68608;SDS011;55581;46.718;7.690;2023-07-31T05:39:22;4.03;;;1.20;;
68608;SDS011;55581;46.718;7.690;2023-07-31T05:41:47;3.77;;;1.30;;
68608;SDS011;55581;46.718;7.690;2023-07-31T05:44:12;3.60;;;1.20;;
68608;SDS011;55581;46.718;7.690;2023-07-31T05:46:38;3.53;;;1.20;;
68608;SDS011;55581;46.718;7.690;2023-07-31T05:49:15;3.30;;;1.20;;
68608;SDS011;55581;46.718;7.690;2023-07-31T05:51:40;4.07;;;1.40;;
68608;SDS011;55581;46.718;7.690;2023-07-31T05:54:06;5.10;;;1.37;;
68608;SDS011;55581;46.718;7.690;2023-07-31T05:56:31;5.07;;;1.53;;
68608;SDS011;55581;46.718;7.690;2023-07-31T05:58:58;4.47;;;1.73;;
68608;SDS011;55581;46.718;7.690;2023-07-31T06:01:23;6.03;;;1.90;;
68608;SDS011;55581;46.718;7.690;2023-07-31T06:03:49;4.38;;;1.58;;
68608;SDS011;55581;46.718;7.690;2023-07-31T06:06:14;5.07;;;1.77;;
68608;SDS011;55581;46.718;7.690;2023-07-31T06:08:40;4.50;;;1.50;;
68608;SDS011;55581;46.718;7.690;2023-07-31T06:11:05;5.97;;;1.37;;
68608;SDS011;55581;46.718;7.690;2023-07-31T06:13:32;3.88;;;1.60;;
68608;SDS011;55581;46.718;7.690;2023-07-31T06:15:57;6.10;;;1.50;;
68608;SDS011;55581;46.718;7.690;2023-07-31T06:18:24;8.90;;;1.10;;
68608;SDS011;55581;46.718;7.690;2023-07-31T06:20:49;5.00;;;1.40;;
68608;SDS011;55581;46.718;7.690;2023-07-31T06:23:18;5.43;;;1.70;;
68608;SDS011;55581;46.718;7.690;2023-07-31T06:25:44;5.45;;;2.35;;
68608;SDS011;55581;46.718;7.690;2023-07-31T06:28:09;4.00;;;1.67;;
68608;SDS011;55581;46.718;7.690;2023-07-31T06:30:35;4.20;;;1.50;;
68608;SDS011;55581;46.718;7.690;2023-07-31T06:33:00;5.68;;;1.33;;
68608;SDS011;55581;46.718;7.690;2023-07-31T06:35:28;4.60;;;1.10;;
68608;SDS011;55581;46.718;7.690;2023-07-31T06:37:53;3.63;;;1.50;;
68608;SDS011;55581;46.718;7.690;2023-07-31T06:40:19;6.50;;;1.70;;
68608;SDS011;55581;46.718;7.690;2023-07-31T06:42:44;4.00;;;1.33;;
68608;SDS011;55581;46.718;7.690;2023-07-31T06:45:10;6.27;;;1.37;;
68608;SDS011;55581;46.718;7.690;2023-07-31T06:47:38;3.80;;;1.20;;
68608;SDS011;55581;46.718;7.690;2023-07-31T06:50:03;4.53;;;1.48;;
68608;SDS011;55581;46.718;7.690;2023-07-31T06:52:29;3.27;;;1.20;;
68608;SDS011;55581;46.718;7.690;2023-07-31T06:55:01;4.07;;;1.20;;
68608;SDS011;55581;46.718;7.690;2023-07-31T06:57:46;3.50;;;1.30;;
68608;SDS011;55581;46.718;7.690;2023-07-31T07:00:15;5.45;;;1.35;;
68608;SDS011;55581;46.718;7.690;2023-07-31T07:02:42;4.75;;;1.80;;
68608;SDS011;55581;46.718;7.690;2023-07-31T07:05:07;3.80;;;1.40;;
68608;SDS011;55581;46.718;7.690;2023-07-31T07:07:33;5.35;;;1.40;;
68608;SDS011;55581;46.718;7.690;2023-07-31T07:09:59;3.85;;;1.20;;
68608;SDS011;55581;46.718;7.690;2023-07-31T07:12:25;3.57;;;1.20;;
68608;SDS011;55581;46.718;7.690;2023-07-31T07:14:50;4.93;;;1.42;;
68608;SDS011;55581;46.718;7.690;2023-07-31T07:17:21;3.92;;;1.23;;
68608;SDS011;55581;46.718;7.690;2023-07-31T07:19:47;3.67;;;1.10;;
68608;SDS011;55581;46.718;7.690;2023-07-31T07:22:13;4.70;;;1.70;;
68608;SDS011;55581;46.718;7.690;2023-07-31T07:24:41;5.37;;;1.40;;
68608;SDS011;55581;46.718;7.690;2023-07-31T07:27:07;6.97;;;1.50;;
68608;SDS011;55581;46.718;7.690;2023-07-31T07:29:33;4.13;;;1.50;;
68608;SDS011;55581;46.718;7.690;2023-07-31T07:31:59;4.27;;;1.37;;
68608;SDS011;55581;46.718;7.690;2023-07-31T07:34:28;5.28;;;1.70;;
68608;SDS011;55581;46.718;7.690;2023-07-31T07:36:53;6.03;;;1.40;;
68608;SDS011;55581;46.718;7.690;2023-07-31T07:39:19;4.93;;;1.40;;
68608;SDS011;55581;46.718;7.690;2023-07-31T07:41:45;4.30;;;1.60;;
68608;SDS011;55581;46.718;7.690;2023-07-31T07:44:11;5.73;;;1.30;;
68608;SDS011;55581;46.718;7.690;2023-07-31T07:46:36;3.80;;;1.35;;
68608;SDS011;55581;46.718;7.690;2023-07-31T07:49:02;4.10;;;1.43;;
68608;SDS011;55581;46.718;7.690;2023-07-31T07:51:27;4.67;;;2.00;;
68608;SDS011;55581;46.718;7.690;2023-07-31T07:53:55;4.65;;;1.50;;
68608;SDS011;55581;46.718;7.690;2023-07-31T07:56:23;5.70;;;1.52;;
68608;SDS011;55581;46.718;7.690;2023-07-31T07:58:49;3.90;;;1.98;;
68608;SDS011;55581;46.718;7.690;2023-07-31T08:01:15;4.10;;;1.60;;
68608;SDS011;55581;46.718;7.690;2023-07-31T08:03:43;3.47;;;1.33;;
68608;SDS011;55581;46.718;7.690;2023-07-31T08:06:08;3.92;;;1.40;;
68608;SDS011;55581;46.718;7.690;2023-07-31T08:08:34;4.93;;;1.50;;
68608;SDS011;55581;46.718;7.690;2023-07-31T08:11:00;3.97;;;1.60;;
68608;SDS011;55581;46.718;7.690;2023-07-31T08:13:26;3.90;;;1.63;;
68608;SDS011;55581;46.718;7.690;2023-07-31T08:15:52;5.40;;;1.70;;
68608;SDS011;55581;46.718;7.690;2023-07-31T08:18:17;3.97;;;1.63;;
68608;SDS011;55581;46.718;7.690;2023-07-31T08:20:43;4.57;;;1.52;;
68608;SDS011;55581;46.718;7.690;2023-07-31T08:23:08;3.60;;;1.47;;
68608;SDS011;55581;46.718;7.690;2023-07-31T08:25:34;4.10;;;1.70;;
68608;SDS011;55581;46.718;7.690;2023-07-31T08:28:01;4.90;;;1.47;;
68608;SDS011;55581;46.718;7.690;2023-07-31T08:30:26;3.72;;;1.50;;
68608;SDS011;55581;46.718;7.690;2023-07-31T08:32:52;3.93;;;1.60;;
68608;SDS011;55581;46.718;7.690;2023-07-31T08:35:20;4.90;;;1.88;;
68608;SDS011;55581;46.718;7.690;2023-07-31T08:37:45;4.13;;;1.60;;
68608;SDS011;55581;46.718;7.690;2023-07-31T08:40:10;4.47;;;1.70;;
68608;SDS011;55581;46.718;7.690;2023-07-31T08:42:46;6.10;;;1.60;;
68608;SDS011;55581;46.718;7.690;2023-07-31T08:45:16;4.38;;;1.70;;
68608;SDS011;55581;46.718;7.690;2023-07-31T08:47:50;3.60;;;1.20;;
68608;SDS011;55581;46.718;7.690;2023-07-31T08:50:17;3.70;;;1.48;;
68608;SDS011;55581;46.718;7.690;2023-07-31T08:52:49;4.97;;;1.60;;
68608;SDS011;55581;46.718;7.690;2023-07-31T08:55:18;5.20;;;1.75;;
68608;SDS011;55581;46.718;7.690;2023-07-31T08:57:51;6.60;;;1.52;;
68608;SDS011;55581;46.718;7.690;2023-07-31T09:00:18;4.57;;;1.93;;
68608;SDS011;55581;46.718;7.690;2023-07-31T09:05:20;4.03;;;1.70;;
68608;SDS011;55581;46.718;7.690;2023-07-31T09:07:47;4.93;;;1.65;;
68608;SDS011;55581;46.718;7.690;2023-07-31T09:10:14;4.20;;;1.60;;
68608;SDS011;55581;46.718;7.690;2023-07-31T09:12:40;4.68;;;1.70;;
68608;SDS011;55581;46.718;7.690;2023-07-31T09:15:05;4.63;;;1.60;;
68608;SDS011;55581;46.718;7.690;2023-07-31T09:17:35;5.38;;;2.00;;
68608;SDS011;55581;46.718;7.690;2023-07-31T09:22:40;4.43;;;1.80;;
68608;SDS011;55581;46.718;7.690;2023-07-31T09:25:20;4.50;;;1.42;;
68608;SDS011;55581;46.718;7.690;2023-07-31T09:27:47;6.50;;;1.80;;
68608;SDS011;55581;46.718;7.690;2023-07-31T09:30:17;3.50;;;1.27;;
68608;SDS011;55581;46.718;7.690;2023-07-31T09:32:47;3.63;;;1.20;;
68608;SDS011;55581;46.718;7.690;2023-07-31T09:35:27;5.83;;;1.67;;
68608;SDS011;55581;46.718;7.690;2023-07-31T09:38:09;4.55;;;1.58;;
68608;SDS011;55581;46.718;7.690;2023-07-31T09:40:39;4.22;;;2.08;;
68608;SDS011;55581;46.718;7.690;2023-07-31T09:43:07;4.45;;;2.05;;
68608;SDS011;55581;46.718;7.690;2023-07-31T09:45:36;5.70;;;2.13;;
68608;SDS011;55581;46.718;7.690;2023-07-31T09:48:03;5.63;;;1.70;;
68608;SDS011;55581;46.718;7.690;2023-07-31T09:50:31;4.32;;;1.58;;
68608;SDS011;55581;46.718;7.690;2023-07-31T09:53:01;4.15;;;1.80;;
68608;SDS011;55581;46.718;7.690;2023-07-31T09:55:26;5.57;;;2.07;;
68608;SDS011;55581;46.718;7.690;2023-07-31T09:57:52;5.75;;;1.90;;
68608;SDS011;55581;46.718;7.690;2023-07-31T10:00:22;5.15;;;2.10;;
68608;SDS011;55581;46.718;7.690;2023-07-31T10:02:50;4.05;;;1.90;;
68608;SDS011;55581;46.718;7.690;2023-07-31T10:05:19;5.47;;;1.43;;
68608;SDS011;55581;46.718;7.690;2023-07-31T10:07:51;5.50;;;1.92;;
68608;SDS011;55581;46.718;7.690;2023-07-31T10:10:20;6.60;;;1.52;;
68608;SDS011;55581;46.718;7.690;2023-07-31T10:12:47;6.32;;;1.60;;
68608;SDS011;55581;46.718;7.690;2023-07-31T10:15:17;5.30;;;1.90;;
68608;SDS011;55581;46.718;7.690;2023-07-31T10:17:48;4.40;;;1.33;;
68608;SDS011;55581;46.718;7.690;2023-07-31T10:20:15;3.85;;;1.40;;
68608;SDS011;55581;46.718;7.690;2023-07-31T10:22:46;4.75;;;1.70;;
68608;SDS011;55581;46.718;7.690;2023-07-31T10:25:13;4.00;;;1.40;;
68608;SDS011;55581;46.718;7.690;2023-07-31T10:27:40;5.05;;;1.77;;
68608;SDS011;55581;46.718;7.690;2023-07-31T10:30:08;4.30;;;1.90;;
68608;SDS011;55581;46.718;7.690;2023-07-31T10:32:37;4.05;;;1.60;;
68608;SDS011;55581;46.718;7.690;2023-07-31T10:35:03;5.07;;;2.00;;
68608;SDS011;55581;46.718;7.690;2023-07-31T10:37:38;4.38;;;1.70;;
68608;SDS011;55581;46.718;7.690;2023-07-31T10:42:50;6.20;;;2.13;;
68608;SDS011;55581;46.718;7.690;2023-07-31T10:48:03;4.70;;;2.03;;
68608;SDS011;55581;46.718;7.690;2023-07-31T10:50:29;4.10;;;1.83;;
68608;SDS011;55581;46.718;7.690;2023-07-31T10:53:01;6.80;;;1.67;;
68608;SDS011;55581;46.718;7.690;2023-07-31T10:58:10;5.97;;;1.80;;
68608;SDS011;55581;46.718;7.690;2023-07-31T11:00:39;4.15;;;1.70;;
68608;SDS011;55581;46.718;7.690;2023-07-31T11:05:51;4.00;;;1.52;;
68608;SDS011;55581;46.718;7.690;2023-07-31T11:08:24;5.37;;;2.00;;
68608;SDS011;55581;46.718;7.690;2023-07-31T11:10:51;4.75;;;1.75;;
68608;SDS011;55581;46.718;7.690;2023-07-31T11:13:29;6.00;;;1.77;;
68608;SDS011;55581;46.718;7.690;2023-07-31T11:15:58;5.22;;;1.67;;
68608;SDS011;55581;46.718;7.690;2023-07-31T11:18:24;3.75;;;1.52;;
68608;SDS011;55581;46.718;7.690;2023-07-31T11:20:51;3.57;;;1.73;;
68608;SDS011;55581;46.718;7.690;2023-07-31T11:23:17;6.68;;;1.80;;
68608;SDS011;55581;46.718;7.690;2023-07-31T11:25:45;4.33;;;1.83;;
68608;SDS011;55581;46.718;7.690;2023-07-31T11:28:12;10.23;;;2.42;;
68608;SDS011;55581;46.718;7.690;2023-07-31T11:30:39;4.95;;;2.15;;
68608;SDS011;55581;46.718;7.690;2023-07-31T11:33:08;4.95;;;1.80;;
68608;SDS011;55581;46.718;7.690;2023-07-31T11:35:46;4.15;;;2.10;;
68608;SDS011;55581;46.718;7.690;2023-07-31T11:38:26;5.33;;;1.60;;
68608;SDS011;55581;46.718;7.690;2023-07-31T11:40:52;3.95;;;1.73;;
68608;SDS011;55581;46.718;7.690;2023-07-31T11:43:19;6.25;;;2.08;;
68608;SDS011;55581;46.718;7.690;2023-07-31T11:45:49;4.18;;;1.58;;
68608;SDS011;55581;46.718;7.690;2023-07-31T11:48:19;6.38;;;1.90;;
68608;SDS011;55581;46.718;7.690;2023-07-31T11:50:49;6.03;;;1.87;;
68608;SDS011;55581;46.718;7.690;2023-07-31T11:53:17;4.47;;;1.80;;
68608;SDS011;55581;46.718;7.690;2023-07-31T11:55:47;5.35;;;2.10;;
68608;SDS011;55581;46.718;7.690;2023-07-31T11:58:13;5.07;;;1.85;;
68608;SDS011;55581;46.718;7.690;2023-07-31T12:00:41;4.57;;;1.70;;
68608;SDS011;55581;46.718;7.690;2023-07-31T12:03:06;5.80;;;2.30;;
68608;SDS011;55581;46.718;7.690;2023-07-31T12:05:32;5.80;;;1.85;;
68608;SDS011;55581;46.718;7.690;2023-07-31T12:07:57;5.57;;;1.83;;
68608;SDS011;55581;46.718;7.690;2023-07-31T12:10:27;4.37;;;1.87;;
68608;SDS011;55581;46.718;7.690;2023-07-31T12:15:37;5.25;;;2.03;;
68608;SDS011;55581;46.718;7.690;2023-07-31T12:18:11;4.50;;;1.88;;
68608;SDS011;55581;46.718;7.690;2023-07-31T12:20:46;4.93;;;1.53;;
68608;SDS011;55581;46.718;7.690;2023-07-31T12:23:17;6.95;;;1.67;;
68608;SDS011;55581;46.718;7.690;2023-07-31T12:25:59;5.05;;;1.90;;
68608;SDS011;55581;46.718;7.690;2023-07-31T12:28:25;5.70;;;2.03;;
68608;SDS011;55581;46.718;7.690;2023-07-31T12:30:50;3.77;;;1.73;;
68608;SDS011;55581;46.718;7.690;2023-07-31T12:33:16;5.33;;;2.00;;
68608;SDS011;55581;46.718;7.690;2023-07-31T12:35:44;5.07;;;2.08;;
68608;SDS011;55581;46.718;7.690;2023-07-31T12:38:12;6.90;;;1.92;;
68608;SDS011;55581;46.718;7.690;2023-07-31T12:40:38;4.70;;;2.00;;
68608;SDS011;55581;46.718;7.690;2023-07-31T12:43:05;4.67;;;1.93;;
68608;SDS011;55581;46.718;7.690;2023-07-31T12:45:33;4.30;;;1.88;;
68608;SDS011;55581;46.718;7.690;2023-07-31T12:47:59;5.05;;;1.92;;
68608;SDS011;55581;46.718;7.690;2023-07-31T12:50:25;6.00;;;2.30;;
68608;SDS011;55581;46.718;7.690;2023-07-31T12:52:52;4.10;;;1.80;;
68608;SDS011;55581;46.718;7.690;2023-07-31T12:55:23;4.28;;;1.90;;
68608;SDS011;55581;46.718;7.690;2023-07-31T12:57:49;3.77;;;1.70;;
68608;SDS011;55581;46.718;7.690;2023-07-31T13:00:15;4.93;;;1.83;;
68608;SDS011;55581;46.718;7.690;2023-07-31T13:02:41;4.70;;;2.30;;
68608;SDS011;55581;46.718;7.690;2023-07-31T13:05:07;6.13;;;2.30;;
68608;SDS011;55581;46.718;7.690;2023-07-31T13:07:32;5.05;;;1.88;;
68608;SDS011;55581;46.718;7.690;2023-07-31T13:09:58;4.80;;;1.80;;
68608;SDS011;55581;46.718;7.690;2023-07-31T13:12:23;5.00;;;2.07;;
68608;SDS011;55581;46.718;7.690;2023-07-31T13:14:49;4.13;;;1.83;;
68608;SDS011;55581;46.718;7.690;2023-07-31T13:17:17;4.33;;;1.97;;
68608;SDS011;55581;46.718;7.690;2023-07-31T13:19:44;5.03;;;2.10;;
68608;SDS011;55581;46.718;7.690;2023-07-31T13:22:09;5.77;;;2.23;;
68608;SDS011;55581;46.718;7.690;2023-07-31T13:24:37;5.28;;;1.75;;
68608;SDS011;55581;46.718;7.690;2023-07-31T13:27:03;4.70;;;1.80;;
68608;SDS011;55581;46.718;7.690;2023-07-31T13:29:29;4.97;;;2.07;;
68608;SDS011;55581;46.718;7.690;2023-07-31T13:31:55;4.65;;;1.90;;
68608;SDS011;55581;46.718;7.690;2023-07-31T13:34:22;5.00;;;1.80;;
68608;SDS011;55581;46.718;7.690;2023-07-31T13:36:48;4.63;;;1.97;;
68608;SDS011;55581;46.718;7.690;2023-07-31T13:39:15;7.68;;;2.38;;
68608;SDS011;55581;46.718;7.690;2023-07-31T13:41:43;3.30;;;1.38;;
68608;SDS011;55581;46.718;7.690;2023-07-31T13:44:08;5.57;;;2.00;;
68608;SDS011;55581;46.718;7.690;2023-07-31T13:46:34;7.10;;;1.90;;
68608;SDS011;55581;46.718;7.690;2023-07-31T13:48:59;4.83;;;2.07;;
68608;SDS011;55581;46.718;7.690;2023-07-31T13:51:26;6.13;;;1.83;;
68608;SDS011;55581;46.718;7.690;2023-07-31T13:53:52;4.30;;;2.30;;
68608;SDS011;55581;46.718;7.690;2023-07-31T13:56:18;4.97;;;1.87;;
68608;SDS011;55581;46.718;7.690;2023-07-31T13:58:46;4.97;;;1.80;;
68608;SDS011;55581;46.718;7.690;2023-07-31T14:01:11;4.70;;;1.83;;
68608;SDS011;55581;46.718;7.690;2023-07-31T14:03:36;5.57;;;2.03;;
68608;SDS011;55581;46.718;7.690;2023-07-31T14:06:02;6.20;;;2.13;;
68608;SDS011;55581;46.718;7.690;2023-07-31T14:08:27;5.90;;;1.80;;
68608;SDS011;55581;46.718;7.690;2023-07-31T14:10:56;4.75;;;1.77;;
68608;SDS011;55581;46.718;7.690;2023-07-31T14:13:21;5.00;;;1.90;;
68608;SDS011;55581;46.718;7.690;2023-07-31T14:15:47;6.38;;;1.98;;
68608;SDS011;55581;46.718;7.690;2023-07-31T14:18:12;5.20;;;2.10;;
68608;SDS011;55581;46.718;7.690;2023-07-31T14:20:38;4.23;;;2.10;;
68608;SDS011;55581;46.718;7.690;2023-07-31T14:23:03;4.70;;;1.90;;
68608;SDS011;55581;46.718;7.690;2023-07-31T14:25:29;4.63;;;2.20;;
68608;SDS011;55581;46.718;7.690;2023-07-31T14:27:54;5.93;;;1.83;;
68608;SDS011;55581;46.718;7.690;2023-07-31T14:30:19;5.40;;;1.80;;
68608;SDS011;55581;46.718;7.690;2023-07-31T14:32:45;5.37;;;2.00;;
68608;SDS011;55581;46.718;7.690;2023-07-31T14:35:11;5.72;;;1.83;;
68608;SDS011;55581;46.718;7.690;2023-07-31T14:37:39;5.80;;;1.60;;
68608;SDS011;55581;46.718;7.690;2023-07-31T14:40:09;7.15;;;1.92;;
68608;SDS011;55581;46.718;7.690;2023-07-31T14:42:38;4.10;;;1.95;;
68608;SDS011;55581;46.718;7.690;2023-07-31T14:45:05;5.00;;;1.92;;
68608;SDS011;55581;46.718;7.690;2023-07-31T14:47:31;4.38;;;1.70;;
68608;SDS011;55581;46.718;7.690;2023-07-31T14:49:57;5.07;;;1.40;;
68608;SDS011;55581;46.718;7.690;2023-07-31T14:52:23;8.00;;;2.05;;
68608;SDS011;55581;46.718;7.690;2023-07-31T14:54:48;4.53;;;1.50;;
68608;SDS011;55581;46.718;7.690;2023-07-31T14:57:14;5.72;;;1.65;;
68608;SDS011;55581;46.718;7.690;2023-07-31T14:59:39;5.57;;;2.00;;
68608;SDS011;55581;46.718;7.690;2023-07-31T15:02:05;4.03;;;1.60;;
68608;SDS011;55581;46.718;7.690;2023-07-31T15:04:31;5.50;;;1.75;;
68608;SDS011;55581;46.718;7.690;2023-07-31T15:06:56;4.47;;;1.80;;
68608;SDS011;55581;46.718;7.690;2023-07-31T15:09:27;4.38;;;1.70;;